Time;durP1;ratioP1;P1;durP2;ratioP2;P2;SDS_P1;SDS_P2;PMS_P1;PMS_P2;Temp;Humidity;BMP_temperature;BMP_pressure;BME280_temperature;BME280_humidity;BME280_pressure;Samples;Min_cycle;Max_cycle;Signal;HPM_P1;HPM_P2
2023/08/28 00:02:16;;;;;;;9.10;5.20;;;;;;;13.20;100.00;101113.75;5088752;28;20124;-68
2023/08/28 00:04:42;;;;;;;7.07;4.65;;;;;;;13.15;100.00;101111.69;5088745;28;20380;-68
2023/08/28 00:07:07;;;;;;;8.55;4.65;;;;;;;13.19;100.00;101108.59;5088746;28;20036;-68
2023/08/28 00:09:34;;;;;;;8.60;5.78;;;;;;;13.12;100.00;101105.91;5092249;28;20028;-68
2023/08/28 00:12:00;;;;;;;6.47;4.28;;;;;;;13.13;100.00;101107.59;5091236;28;20029;-68
2023/08/28 00:14:25;;;;;;;11.30;6.13;;;;;;;13.08;100.00;101099.34;5091152;28;20115;-68
2023/08/28 00:16:51;;;;;;;8.38;4.97;;;;;;;13.15;100.00;101108.19;5092416;28;20086;-68
2023/08/28 00:19:16;;;;;;;8.38;4.38;;;;;;;13.13;100.00;101110.25;5092424;28;20063;-68
2023/08/28 00:21:41;;;;;;;7.45;4.93;;;;;;;13.07;100.00;101106.56;5092455;28;20081;-68
2023/08/28 00:24:07;;;;;;;8.57;5.03;;;;;;;13.09;100.00;101106.34;5092549;28;20032;-68
2023/08/28 00:26:33;;;;;;;7.90;5.20;;;;;;;13.08;100.00;101102.84;5072753;28;20028;-68
2023/08/28 00:28:58;;;;;;;10.98;5.95;;;;;;;13.06;100.00;101098.72;5072889;28;20040;-68
2023/08/28 00:31:24;;;;;;;5.32;4.50;;;;;;;13.08;100.00;101104.69;5072933;28;20035;-68
2023/08/28 00:33:49;;;;;;;6.95;4.68;;;;;;;13.01;100.00;101098.53;5072771;28;20058;-68
2023/08/28 00:36:15;;;;;;;9.00;4.70;;;;;;;13.04;100.00;101098.91;5091992;28;20387;-68
2023/08/28 00:38:41;;;;;;;10.32;5.22;;;;;;;13.01;100.00;101091.31;5092180;28;20072;-68
2023/08/28 00:41:06;;;;;;;6.85;4.72;;;;;;;12.99;100.00;101085.31;5091901;28;20044;-68
2023/08/28 00:43:32;;;;;;;7.35;5.00;;;;;;;12.94;100.00;101085.97;5092023;28;20048;-68
2023/08/28 00:45:57;;;;;;;12.27;5.78;;;;;;;12.95;100.00;101092.13;5091875;28;20085;-68
2023/08/28 00:48:23;;;;;;;8.05;4.80;;;;;;;12.81;100.00;101080.63;5091808;28;20032;-68
2023/08/28 00:50:50;;;;;;;9.30;5.35;;;;;;;12.87;100.00;101089.69;5091814;28;20537;-68
2023/08/28 00:53:16;;;;;;;10.20;5.50;;;;;;;12.86;100.00;101090.69;5091695;28;20035;-68
2023/08/28 00:55:43;;;;;;;10.90;6.07;;;;;;;12.87;100.00;101084.31;5091718;28;20111;-68
2023/08/28 00:58:08;;;;;;;8.32;4.95;;;;;;;12.84;100.00;101074.84;5092028;28;20073;-68
2023/08/28 01:00:34;;;;;;;8.73;5.70;;;;;;;12.80;100.00;101068.25;5091574;28;20040;-68
2023/08/28 01:02:59;;;;;;;6.45;4.85;;;;;;;12.79;100.00;101076.50;5090491;28;20114;-68
2023/08/28 01:05:32;;;;;;;8.55;5.15;;;;;;;12.80;100.00;101080.81;5091538;28;20540;-68
2023/08/28 01:08:23;;;;;;;7.97;4.85;;;;;;;12.76;100.00;101069.69;5091407;28;20027;-68
2023/08/28 01:10:57;;;;;;;9.23;5.43;;;;;;;12.76;100.00;101066.19;5091664;28;20077;-68
2023/08/28 01:13:35;;;;;;;9.85;5.35;;;;;;;12.77;100.00;101067.84;5091474;28;20035;-68
2023/08/28 01:16:00;;;;;;;7.15;5.40;;;;;;;12.70;100.00;101074.00;5091340;28;20035;-68
2023/08/28 01:18:26;;;;;;;8.75;5.20;;;;;;;12.69;100.00;101077.72;5089209;28;20449;-68
2023/08/28 01:20:53;;;;;;;8.68;5.38;;;;;;;12.69;100.00;101071.53;5084309;28;20059;-68
2023/08/28 01:23:43;;;;;;;7.75;5.30;;;;;;;12.72;100.00;101079.16;5091304;28;20028;-68
2023/08/28 01:26:08;;;;;;;7.85;5.32;;;;;;;12.65;100.00;101081.84;5091220;28;20070;-68
2023/08/28 01:28:34;;;;;;;7.70;5.13;;;;;;;12.59;100.00;101079.97;5091059;28;20036;-68
2023/08/28 01:31:04;;;;;;;9.27;5.97;;;;;;;12.56;100.00;101068.84;5091169;28;20032;-68
2023/08/28 01:33:30;;;;;;;7.85;5.60;;;;;;;12.53;100.00;101062.06;5091185;28;20047;-68
2023/08/28 01:36:09;;;;;;;11.68;5.90;;;;;;;12.50;100.00;101049.09;5090875;28;20035;-68
2023/08/28 01:38:45;;;;;;;12.70;5.95;;;;;;;12.48;100.00;101051.97;5090993;28;20049;-68
2023/08/28 01:41:12;;;;;;;9.50;6.28;;;;;;;12.47;100.00;101060.19;5090820;28;20032;-68
2023/08/28 01:43:42;;;;;;;8.38;5.80;;;;;;;12.41;100.00;101064.50;5090897;28;20040;-68
2023/08/28 01:46:08;;;;;;;8.35;5.47;;;;;;;12.41;100.00;101053.81;5090871;28;20399;-68
2023/08/28 01:48:35;;;;;;;8.93;5.30;;;;;;;12.42;100.00;101054.66;5090663;28;20057;-68
2023/08/28 01:51:01;;;;;;;8.25;6.25;;;;;;;12.40;100.00;101054.84;5090685;28;20089;-68
2023/08/28 01:53:27;;;;;;;11.05;6.18;;;;;;;12.39;100.00;101049.69;5090533;28;20051;-68
2023/08/28 01:55:58;;;;;;;9.55;5.90;;;;;;;12.40;100.00;101064.72;5090451;28;20429;-68
2023/08/28 01:58:23;;;;;;;9.68;6.18;;;;;;;12.38;100.00;101058.75;5090430;28;20038;-68
2023/08/28 02:00:49;;;;;;;9.52;5.97;;;;;;;12.37;100.00;101067.81;5088932;28;20465;-68
2023/08/28 02:03:14;;;;;;;10.88;5.57;;;;;;;12.36;100.00;101066.97;5090545;28;20032;-68
2023/08/28 02:05:39;;;;;;;9.38;5.28;;;;;;;12.35;100.00;101065.31;5090535;28;20067;-68
2023/08/28 02:08:05;;;;;;;9.80;6.82;;;;;;;12.33;100.00;101062.03;5090372;28;20036;-68
2023/08/28 02:10:30;;;;;;;9.57;5.90;;;;;;;12.30;100.00;101058.94;5088896;28;20028;-68
2023/08/28 02:12:56;;;;;;;9.90;5.72;;;;;;;12.25;100.00;101044.31;5090302;28;20030;-68
2023/08/28 02:15:21;;;;;;;11.90;7.00;;;;;;;12.27;100.00;101042.28;5089108;28;20101;-68
2023/08/28 02:17:46;;;;;;;11.98;6.13;;;;;;;12.26;100.00;101037.13;5090197;28;20124;-68
2023/08/28 02:20:11;;;;;;;8.80;5.50;;;;;;;12.24;100.00;101037.34;5090139;28;20082;-67
2023/08/28 02:22:37;;;;;;;12.00;6.07;;;;;;;12.24;100.00;101044.53;5090099;28;20055;-68
2023/08/28 02:25:05;;;;;;;8.88;5.97;;;;;;;12.15;100.00;101046.56;5090010;28;20032;-67
2023/08/28 02:27:31;;;;;;;11.68;6.88;;;;;;;12.18;100.00;101048.00;5089958;28;20498;-67
2023/08/28 02:29:56;;;;;;;9.73;5.65;;;;;;;12.20;100.00;101048.63;5089445;28;20058;-68
2023/08/28 02:32:23;;;;;;;10.60;5.97;;;;;;;12.16;100.00;101050.91;5089984;28;20036;-67
2023/08/28 02:34:48;;;;;;;11.90;6.68;;;;;;;12.18;100.00;101056.88;5089903;28;20103;-67
2023/08/28 02:37:14;;;;;;;13.35;7.07;;;;;;;12.18;100.00;101056.03;5088480;28;20050;-67
2023/08/28 02:39:39;;;;;;;9.00;6.60;;;;;;;12.14;100.00;101052.94;5089598;28;20063;-67
2023/08/28 02:42:04;;;;;;;12.30;6.65;;;;;;;12.16;100.00;101047.41;5089780;28;20028;-68
2023/08/28 02:44:30;;;;;;;10.80;7.25;;;;;;;12.14;100.00;101044.09;5089665;28;20043;-67
2023/08/28 02:46:55;;;;;;;12.55;6.93;;;;;;;12.13;100.00;101047.78;5089634;28;20109;-67
2023/08/28 02:49:20;;;;;;;9.43;6.40;;;;;;;12.08;100.00;101040.38;5089676;28;20032;-67
2023/08/28 02:51:46;;;;;;;11.80;6.95;;;;;;;12.10;100.00;101057.03;5089543;28;20364;-67
2023/08/28 02:54:11;;;;;;;9.32;6.13;;;;;;;12.06;100.00;101051.28;5089413;28;20039;-67
2023/08/28 02:56:40;;;;;;;11.75;6.10;;;;;;;12.10;100.00;101051.69;5089468;28;20114;-67
2023/08/28 02:59:06;;;;;;;11.90;6.97;;;;;;;12.04;100.00;101053.31;5089536;28;20073;-67
2023/08/28 03:01:35;;;;;;;12.77;7.10;;;;;;;12.04;100.00;101053.31;5089574;28;20040;-67
2023/08/28 03:04:04;;;;;;;9.88;6.57;;;;;;;12.03;100.00;101062.38;5089340;28;20089;-68
2023/08/28 03:06:33;;;;;;;11.95;6.95;;;;;;;12.04;100.00;101064.00;5089267;28;20032;-67
2023/08/28 03:08:58;;;;;;;11.65;6.50;;;;;;;11.99;100.00;101063.78;5089236;28;20123;-67
2023/08/28 03:11:24;;;;;;;10.65;6.72;;;;;;;12.01;100.00;101066.28;5089174;28;20126;-67
2023/08/28 03:13:49;;;;;;;11.95;7.78;;;;;;;11.98;100.00;101067.50;5089178;28;20123;-67
2023/08/28 03:16:14;;;;;;;13.43;7.30;;;;;;;11.98;100.00;101072.03;5087565;28;20035;-67
2023/08/28 03:18:40;;;;;;;13.23;8.07;;;;;;;11.94;100.00;101071.56;5069436;28;20059;-68
2023/08/28 03:21:05;;;;;;;14.07;7.90;;;;;;;11.95;100.00;101067.91;5068446;28;20032;-67
2023/08/28 03:23:30;;;;;;;14.55;7.95;;;;;;;11.97;100.00;101067.69;5069742;28;20028;-67
2023/08/28 03:25:56;;;;;;;11.65;7.03;;;;;;;11.97;100.00;101071.22;5069800;28;20040;-67
2023/08/28 03:28:21;;;;;;;13.32;6.60;;;;;;;11.92;100.00;101065.63;5069663;28;20032;-67
2023/08/28 03:30:46;;;;;;;11.15;7.65;;;;;;;11.96;100.00;101074.88;5069847;28;20036;-67
2023/08/28 03:33:12;;;;;;;13.05;7.00;;;;;;;11.96;100.00;101074.06;5069743;28;20040;-67
2023/08/28 03:35:37;;;;;;;19.25;10.30;;;;;;;11.90;100.00;101072.19;5069630;28;20039;-67
2023/08/28 03:38:03;;;;;;;14.35;7.47;;;;;;;11.96;100.00;101082.91;5069706;28;20036;-67
2023/08/28 03:40:28;;;;;;;14.30;7.80;;;;;;;11.96;100.00;101082.09;5069680;28;20054;-67
2023/08/28 03:42:53;;;;;;;15.27;7.95;;;;;;;11.94;100.00;101095.63;5072460;28;20385;-67
2023/08/28 03:45:19;;;;;;;14.07;7.45;;;;;;;11.94;100.00;101100.16;5073839;28;20063;-67
2023/08/28 03:47:44;;;;;;;16.02;8.68;;;;;;;11.93;100.00;101110.03;5073729;28;20028;-67
2023/08/28 03:50:09;;;;;;;16.23;8.25;;;;;;;11.93;100.00;101101.19;5073598;28;20078;-68
2023/08/28 03:52:35;;;;;;;14.35;8.32;;;;;;;11.91;100.00;101097.91;5073432;28;20469;-67
2023/08/28 03:55:00;;;;;;;16.38;7.85;;;;;;;11.90;100.00;101102.41;5092695;28;20085;-67
2023/08/28 03:57:25;;;;;;;12.75;7.68;;;;;;;11.87;100.00;101102.81;5091760;28;20036;-67
2023/08/28 03:59:52;;;;;;;15.43;8.35;;;;;;;11.88;100.00;101112.47;5092811;28;20120;-67
2023/08/28 04:02:19;;;;;;;16.45;8.82;;;;;;;11.83;100.00;101110.38;5092896;28;20444;-67
2023/08/28 04:04:44;;;;;;;15.30;8.32;;;;;;;11.80;100.00;101117.97;5092854;28;20028;-67
2023/08/28 04:07:22;;;;;;;13.40;8.07;;;;;;;11.84;100.00;101124.53;5092711;28;20039;-67
2023/08/28 04:09:47;;;;;;;13.55;7.78;;;;;;;11.84;100.00;101117.38;5092594;28;20483;-67
2023/08/28 04:12:12;;;;;;;13.65;7.53;;;;;;;11.86;100.00;101125.22;5092686;28;20035;-67
2023/08/28 04:14:38;;;;;;;12.52;7.10;;;;;;;11.88;100.00;101127.69;5092465;28;20031;-67
2023/08/28 04:17:03;;;;;;;14.63;7.53;;;;;;;11.90;100.00;101125.66;5092419;28;20087;-67
2023/08/28 04:19:29;;;;;;;13.43;8.05;;;;;;;11.92;100.00;101118.25;5092361;28;20032;-67
2023/08/28 04:21:54;;;;;;;16.05;8.75;;;;;;;11.96;100.00;101125.66;5091241;28;20474;-67
2023/08/28 04:24:19;;;;;;;14.70;7.32;;;;;;;11.98;100.00;101128.16;5091206;28;20028;-67
2023/08/28 04:26:45;;;;;;;15.18;8.60;;;;;;;12.01;100.00;101125.91;5092430;28;20502;-68
2023/08/28 04:29:10;;;;;;;13.35;7.88;;;;;;;12.00;100.00;101126.94;5092365;28;20463;-67
2023/08/28 04:31:35;;;;;;;15.25;8.20;;;;;;;12.02;100.00;101122.19;5092527;28;20387;-67
2023/08/28 04:34:02;;;;;;;16.02;8.52;;;;;;;12.06;100.00;101125.31;5092172;28;20031;-67
2023/08/28 04:36:27;;;;;;;18.40;9.50;;;;;;;12.05;100.00;101124.50;5092333;28;20089;-67
2023/08/28 04:38:53;;;;;;;16.33;8.75;;;;;;;12.06;100.00;101126.13;5092128;28;20927;-68
2023/08/28 04:41:18;;;;;;;15.60;8.40;;;;;;;12.07;100.00;101127.75;5091935;28;20080;-67
2023/08/28 04:43:43;;;;;;;16.88;8.57;;;;;;;12.09;100.00;101129.44;5090871;28;20055;-67
2023/08/28 04:46:09;;;;;;;16.45;9.27;;;;;;;12.08;100.00;101123.28;5089605;28;20068;-68
2023/08/28 04:48:34;;;;;;;16.05;8.85;;;;;;;12.10;100.00;101123.03;5090493;28;20051;-67
2023/08/28 04:51:00;;;;;;;15.43;9.02;;;;;;;12.07;100.00;101117.06;5090812;28;20118;-67
2023/08/28 04:53:25;;;;;;;15.07;7.93;;;;;;;12.08;100.00;101115.25;5090325;28;20024;-67
2023/08/28 04:55:50;;;;;;;15.82;8.57;;;;;;;12.08;100.00;101104.56;5087504;28;20024;-67
2023/08/28 04:58:16;;;;;;;19.48;8.73;;;;;;;12.07;100.00;101103.69;5072180;28;20067;-67
2023/08/28 05:00:41;;;;;;;16.42;8.75;;;;;;;12.06;100.00;101098.56;5071942;28;20032;-68
2023/08/28 05:03:06;;;;;;;15.63;9.15;;;;;;;12.08;100.00;101096.53;5077145;28;20028;-67
2023/08/28 05:05:32;;;;;;;13.65;8.90;;;;;;;12.08;100.00;101104.56;5089516;28;20491;-67
2023/08/28 05:07:58;;;;;;;16.27;8.60;;;;;;;12.10;100.00;101099.81;5070443;28;20642;-68
2023/08/28 05:10:23;;;;;;;17.25;9.35;;;;;;;12.10;100.00;101102.47;5090725;28;20039;-67
2023/08/28 05:12:48;;;;;;;15.85;8.15;;;;;;;12.04;100.00;101085.41;5091409;28;20036;-67
2023/08/28 05:15:14;;;;;;;13.93;8.05;;;;;;;12.07;100.00;101098.34;5090025;28;20067;-67
2023/08/28 05:17:39;;;;;;;16.60;8.82;;;;;;;12.11;100.00;101100.66;5090885;28;20050;-68
2023/08/28 05:20:05;;;;;;;17.42;9.35;;;;;;;12.08;100.00;101099.22;5091177;28;20063;-67
2023/08/28 05:22:30;;;;;;;16.77;9.27;;;;;;;12.09;100.00;101100.84;5089683;28;20456;-67
2023/08/28 05:24:56;;;;;;;16.58;9.27;;;;;;;12.10;100.00;101107.81;5091113;28;20028;-68
2023/08/28 05:27:21;;;;;;;17.40;11.23;;;;;;;12.10;100.00;101094.47;5090858;28;20032;-67
2023/08/28 05:29:47;;;;;;;17.38;9.68;;;;;;;12.15;100.00;101096.53;5090739;28;20040;-68
2023/08/28 05:32:13;;;;;;;17.75;9.55;;;;;;;12.18;100.00;101094.31;5090676;28;20035;-67
2023/08/28 05:34:38;;;;;;;16.10;9.60;;;;;;;12.22;100.00;101102.75;5090729;28;20081;-68
2023/08/28 05:37:04;;;;;;;20.67;11.43;;;;;;;12.24;100.00;101106.88;5091006;28;20103;-67
2023/08/28 05:39:29;;;;;;;19.40;10.38;;;;;;;12.30;100.00;101093.72;5070370;28;20545;-67
2023/08/28 05:41:55;;;;;;;17.13;9.93;;;;;;;12.31;100.00;101085.47;5077332;28;20029;-68
2023/08/28 05:44:20;;;;;;;20.48;10.88;;;;;;;12.44;100.00;101100.72;5090506;28;20615;-67
2023/08/28 05:46:45;;;;;;;17.70;10.40;;;;;;;12.47;100.00;101101.16;5071245;28;20040;-67
2023/08/28 05:49:11;;;;;;;17.17;10.43;;;;;;;12.53;100.00;101099.53;5071047;28;20035;-67
2023/08/28 05:51:36;;;;;;;18.95;10.95;;;;;;;12.58;100.00;101105.09;5071066;28;20391;-67
2023/08/28 05:54:02;;;;;;;19.23;11.88;;;;;;;12.62;100.00;101100.13;5070920;28;20111;-67
2023/08/28 05:56:27;;;;;;;17.27;10.02;;;;;;;12.69;100.00;101101.81;5078433;28;20440;-67
2023/08/28 05:58:52;;;;;;;22.52;10.73;;;;;;;12.65;100.00;101097.91;5090216;28;20528;-67
2023/08/28 06:01:18;;;;;;;18.30;10.98;;;;;;;12.78;100.00;101110.44;5090452;28;20429;-68
2023/08/28 06:03:43;;;;;;;18.55;11.02;;;;;;;12.80;100.00;101108.41;5090221;28;20027;-67
2023/08/28 06:06:11;;;;;;;18.38;11.18;;;;;;;12.87;100.00;101105.72;5082742;28;20560;-67
2023/08/28 06:08:37;;;;;;;17.75;11.32;;;;;;;12.92;100.00;101111.28;5089735;28;20032;-67
2023/08/28 06:11:03;;;;;;;17.95;11.10;;;;;;;13.02;100.00;101108.19;5090069;28;20035;-67
2023/08/28 06:13:28;;;;;;;16.95;11.25;;;;;;;13.06;100.00;101104.91;5089782;28;20425;-67
2023/08/28 06:15:53;;;;;;;19.15;11.98;;;;;;;13.12;100.00;101103.25;5090020;28;20084;-68
2023/08/28 06:18:19;;;;;;;19.08;12.05;;;;;;;13.16;100.00;101102.63;5088241;28;20066;-68
2023/08/28 06:20:44;;;;;;;18.40;11.52;;;;;;;13.18;100.00;101098.91;5089949;28;20079;-70
2023/08/28 06:23:10;;;;;;;20.52;11.90;;;;;;;13.27;100.00;101098.53;5088606;28;20027;-68
2023/08/28 06:25:35;;;;;;;18.90;11.32;;;;;;;13.30;100.00;101103.47;5089741;28;20039;-68
2023/08/28 06:28:01;;;;;;;20.38;11.70;;;;;;;13.34;100.00;101103.88;5089612;28;20114;-68
2023/08/28 06:30:26;;;;;;;19.45;12.60;;;;;;;13.41;100.00;101107.34;5089790;28;20031;-67
2023/08/28 06:32:51;;;;;;;18.83;11.50;;;;;;;13.46;100.00;101107.56;5089694;28;20036;-67
2023/08/28 06:35:17;;;;;;;18.13;10.88;;;;;;;13.47;100.00;101098.50;5088860;28;20063;-68
2023/08/28 06:37:42;;;;;;;19.58;12.75;;;;;;;13.53;100.00;101102.19;5089754;28;20078;-68
2023/08/28 06:40:08;;;;;;;18.80;11.55;;;;;;;13.61;100.00;101107.31;5089688;28;20047;-68
2023/08/28 06:42:34;;;;;;;19.70;11.32;;;;;;;13.67;100.00;101106.47;5088238;28;20043;-67
2023/08/28 06:45:00;;;;;;;19.77;12.80;;;;;;;13.68;100.00;101101.97;5089491;28;20039;-68
2023/08/28 06:47:25;;;;;;;19.52;12.95;;;;;;;13.78;100.00;101105.84;5089409;28;20508;-68
2023/08/28 06:49:51;;;;;;;16.83;11.02;;;;;;;13.86;100.00;101110.13;5089357;28;20024;-67
2023/08/28 06:52:16;;;;;;;18.13;11.35;;;;;;;13.94;100.00;101114.44;5089046;28;20024;-67
2023/08/28 06:54:41;;;;;;;20.33;12.27;;;;;;;13.94;100.00;101104.53;5089388;28;20115;-67
2023/08/28 06:57:07;;;;;;;20.85;12.98;;;;;;;14.03;100.00;101113.97;5089171;28;20042;-67
2023/08/28 06:59:32;;;;;;;17.63;10.80;;;;;;;14.11;100.00;101128.19;5089428;28;20126;-67
2023/08/28 07:01:57;;;;;;;17.98;10.93;;;;;;;14.15;100.00;101132.09;5089443;28;20032;-68
2023/08/28 07:04:23;;;;;;;18.35;11.90;;;;;;;14.23;100.00;101131.84;5088766;28;20475;-68
2023/08/28 07:06:48;;;;;;;20.55;12.25;;;;;;;14.30;100.00;101137.16;5089218;28;20383;-68
2023/08/28 07:09:14;;;;;;;20.60;12.77;;;;;;;14.39;100.00;101142.09;5089114;28;20020;-68
2023/08/28 07:11:41;;;;;;;17.95;11.68;;;;;;;14.44;100.00;101133.41;5074441;28;20079;-68
2023/08/28 07:14:07;;;;;;;18.90;11.55;;;;;;;14.50;100.00;101135.19;5088763;28;20520;-67
2023/08/28 07:16:33;;;;;;;18.40;12.63;;;;;;;14.64;100.00;101144.03;5076348;28;20060;-68
2023/08/28 07:18:59;;;;;;;17.42;13.07;;;;;;;14.67;100.00;101143.59;5069421;28;20079;-68
2023/08/28 07:21:24;;;;;;;22.52;14.32;;;;;;;14.69;100.00;101141.50;5069335;28;20060;-68
2023/08/28 07:23:51;;;;;;;21.65;12.98;;;;;;;14.77;100.00;101143.13;5069344;28;20020;-68
2023/08/28 07:26:17;;;;;;;19.33;12.30;;;;;;;14.82;100.00;101154.84;5069647;28;20082;-68
2023/08/28 07:28:42;;;;;;;19.30;11.60;;;;;;;14.93;100.00;101144.44;5069309;28;20021;-68
2023/08/28 07:31:10;;;;;;;18.10;12.25;;;;;;;15.03;100.00;101145.59;5068042;28;20043;-68
2023/08/28 07:33:35;;;;;;;20.42;11.45;;;;;;;15.13;100.00;101142.44;5072736;28;20071;-68
2023/08/28 07:36:01;;;;;;;19.45;11.02;;;;;;;15.22;100.00;101132.22;5068675;28;20024;-68
2023/08/28 07:38:26;;;;;;;18.55;11.10;;;;;;;15.33;100.00;101128.81;5068201;28;20051;-67
2023/08/28 07:40:51;;;;;;;16.45;9.38;;;;;;;15.38;100.00;101141.56;5068516;28;20115;-68
2023/08/28 07:43:17;;;;;;;14.27;8.77;;;;;;;15.41;100.00;101136.59;5068883;28;20033;-68
2023/08/28 07:45:42;;;;;;;14.80;9.15;;;;;;;15.44;100.00;101136.16;5069424;28;20059;-68
2023/08/28 07:48:08;;;;;;;13.10;8.18;;;;;;;15.47;100.00;101129.50;5069167;28;20086;-68
2023/08/28 07:50:33;;;;;;;14.38;8.27;;;;;;;15.53;100.00;101134.81;5069588;28;20020;-68
2023/08/28 07:52:59;;;;;;;12.02;7.75;;;;;;;15.59;100.00;101127.75;5069841;28;20064;-68
2023/08/28 07:55:24;;;;;;;13.95;8.05;;;;;;;15.66;100.00;101144.59;5068691;28;20036;-68
2023/08/28 07:57:50;;;;;;;13.75;8.80;;;;;;;15.73;100.00;101134.63;5069273;28;20769;-68
2023/08/28 08:00:16;;;;;;;13.10;7.28;;;;;;;15.83;100.00;101141.38;5068837;28;20031;-68
2023/08/28 08:02:42;;;;;;;11.48;6.80;;;;;;;15.90;100.00;101142.09;5069287;28;20033;-67
2023/08/28 08:05:10;;;;;;;15.23;8.63;;;;;;;16.39;100.00;101130.28;5069311;28;20078;-69
2023/08/28 08:07:39;;;;;;;12.52;7.10;;;;;;;18.01;100.00;101136.31;5069241;28;20046;-67
2023/08/28 08:10:07;;;;;;;10.18;6.32;;;;;;;20.07;100.00;101150.22;5068574;28;20461;-67
2023/08/28 08:12:32;;;;;;;9.95;4.07;;;;;;;21.56;95.58;101152.41;5069431;28;20024;-69
2023/08/28 08:14:58;;;;;;;3.97;2.75;;;;;;;22.58;86.15;101143.81;5069264;28;20028;-67
2023/08/28 08:17:23;;;;;;;6.18;4.40;;;;;;;23.83;78.79;101147.00;5068931;28;20656;-68
2023/08/28 08:19:48;;;;;;;6.32;4.82;;;;;;;25.05;72.86;101136.44;5069972;28;20021;-67
2023/08/28 08:22:14;;;;;;;5.93;3.05;;;;;;;26.05;65.84;101140.28;5069405;28;20033;-67
2023/08/28 08:24:39;;;;;;;4.82;3.60;;;;;;;26.65;62.68;101147.94;5068902;28;20040;-69
2023/08/28 08:27:04;;;;;;;3.00;2.70;;;;;;;27.35;60.01;101141.53;5068922;28;20033;-67
2023/08/28 08:29:30;;;;;;;5.60;3.25;;;;;;;27.62;59.16;101140.75;5070699;28;20032;-70
2023/08/28 08:31:56;;;;;;;4.55;2.90;;;;;;;26.29;60.87;101145.69;5092197;28;20044;-67
2023/08/28 08:34:21;;;;;;;5.47;2.35;;;;;;;24.74;64.38;101147.59;5090686;28;20040;-68
2023/08/28 08:36:47;;;;;;;51.65;7.18;;;;;;;23.23;70.46;101146.03;5092214;28;20114;-67
2023/08/28 08:39:12;;;;;;;5.07;2.35;;;;;;;22.07;74.92;101141.75;5089619;28;20047;-67
2023/08/28 08:41:42;;;;;;;7.55;3.15;;;;;;;21.31;79.96;101144.06;5072134;28;20036;-67
2023/08/28 08:44:08;;;;;;;3.63;2.20;;;;;;;20.54;81.41;101144.25;5091410;28;20867;-68
2023/08/28 08:46:34;;;;;;;7.78;2.60;;;;;;;19.93;85.68;101148.94;5091564;28;20028;-68
2023/08/28 08:49:00;;;;;;;4.70;2.70;;;;;;;19.44;92.47;101149.63;5091425;28;20024;-68
2023/08/28 08:51:30;;;;;;;3.67;2.03;;;;;;;19.14;93.02;101155.38;5091271;28;20481;-68
2023/08/28 08:54:04;;;;;;;7.90;2.33;;;;;;;18.92;93.02;101154.50;5091540;28;20113;-68
2023/08/28 08:56:32;;;;;;;33.35;3.92;;;;;;;18.59;96.31;101145.25;5090729;28;20028;-68
2023/08/28 08:58:58;;;;;;;5.30;1.83;;;;;;;18.39;98.20;101153.78;5091300;28;20020;-68
2023/08/28 09:01:25;;;;;;;4.45;1.30;;;;;;;18.24;98.87;101140.81;5091252;28;20115;-68
2023/08/28 09:03:51;;;;;;;2.55;1.85;;;;;;;18.30;96.17;101141.72;5091546;28;20032;-68
2023/08/28 09:06:16;;;;;;;1.45;1.27;;;;;;;18.49;96.64;101140.47;5091594;28;20547;-68
2023/08/28 09:08:42;;;;;;;2.83;1.85;;;;;;;18.79;95.68;101140.22;5089927;28;20043;-67
2023/08/28 09:11:08;;;;;;;2.97;1.70;;;;;;;18.98;91.13;101134.59;5089100;28;20383;-68
2023/08/28 09:13:35;;;;;;;1.88;1.60;;;;;;;19.11;92.68;101138.84;5091237;28;20050;-68
2023/08/28 09:16:00;;;;;;;4.25;1.95;;;;;;;19.29;92.71;101132.38;5090805;28;20036;-70
2023/08/28 09:18:26;;;;;;;2.17;1.70;;;;;;;19.31;90.78;101135.63;5082459;28;20037;-69
2023/08/28 09:21:11;;;;;;;2.88;1.52;;;;;;;19.37;94.71;101137.34;5073777;28;20450;-68
2023/08/28 09:23:47;;;;;;;2.40;1.85;;;;;;;19.30;91.94;101137.50;5070640;28;20196;-67
2023/08/28 09:26:18;;;;;;;2.55;2.20;;;;;;;19.23;94.82;101136.84;5071511;28;20031;-67
2023/08/28 09:29:00;;;;;;;3.25;2.55;;;;;;;19.14;96.02;101138.34;5070856;28;20016;-67
2023/08/28 09:31:45;;;;;;;2.40;1.92;;;;;;;18.91;95.88;101142.84;5070427;28;20105;-69
2023/08/28 09:34:10;;;;;;;3.08;2.03;;;;;;;18.62;92.67;101134.75;5071825;28;20024;-67
2023/08/28 09:36:38;;;;;;;4.90;2.47;;;;;;;18.43;97.30;101137.94;5071687;28;20082;-69
2023/08/28 09:39:05;;;;;;;3.65;2.40;;;;;;;18.21;97.21;101135.91;5071735;28;20035;-69
2023/08/28 09:41:46;;;;;;;3.88;2.95;;;;;;;18.13;99.79;101139.81;5072455;28;20456;-70
2023/08/28 09:44:14;;;;;;;7.13;3.77;;;;;;;17.93;100.00;101134.81;5071186;28;20082;-69
2023/08/28 09:46:42;;;;;;;7.93;4.75;;;;;;;17.77;100.00;101135.50;5072472;28;20040;-67
2023/08/28 09:49:09;;;;;;;9.02;4.65;;;;;;;17.70;100.00;101140.22;5071776;28;20024;-67
2023/08/28 09:51:45;;;;;;;6.25;4.95;;;;;;;17.68;100.00;101147.72;5072402;28;20532;-67
2023/08/28 09:54:12;;;;;;;7.78;5.15;;;;;;;17.63;100.00;101144.91;5072242;28;20021;-67
2023/08/28 09:56:38;;;;;;;6.45;4.68;;;;;;;17.65;100.00;101145.50;5072194;28;20031;-67
2023/08/28 09:59:06;;;;;;;7.53;4.30;;;;;;;17.68;100.00;101145.88;5071451;28;20566;-67
2023/08/28 10:01:34;;;;;;;7.93;5.07;;;;;;;17.78;100.00;101145.25;5069875;28;20364;-67
2023/08/28 10:04:01;;;;;;;7.90;5.03;;;;;;;17.86;100.00;101149.47;5072334;28;20043;-67
2023/08/28 10:06:32;;;;;;;10.40;5.50;;;;;;;17.99;100.00;101143.81;5081164;28;20028;-67
2023/08/28 10:09:02;;;;;;;6.75;5.15;;;;;;;18.03;100.00;101150.38;5089210;28;20024;-67
2023/08/28 10:11:35;;;;;;;12.80;6.18;;;;;;;18.07;100.00;101156.13;5089106;28;20028;-67
2023/08/28 10:14:03;;;;;;;6.43;5.03;;;;;;;18.07;100.00;101153.41;5090035;28;20499;-67
2023/08/28 10:16:32;;;;;;;9.82;5.88;;;;;;;18.01;100.00;101149.00;5090087;28;20055;-67
2023/08/28 10:19:13;;;;;;;11.27;6.07;;;;;;;17.97;100.00;101145.94;5089893;28;20403;-67
2023/08/28 10:21:40;;;;;;;7.90;5.53;;;;;;;17.93;100.00;101155.56;5090121;28;20426;-68
2023/08/28 10:24:07;;;;;;;8.02;5.50;;;;;;;17.90;100.00;101156.88;5089687;28;20536;-67
2023/08/28 10:26:34;;;;;;;8.15;5.00;;;;;;;17.84;100.00;101151.59;5089838;28;20491;-67
2023/08/28 10:29:00;;;;;;;8.70;5.55;;;;;;;17.84;100.00;101156.97;5089870;28;20034;-68
2023/08/28 10:31:28;;;;;;;10.75;5.88;;;;;;;17.79;100.00;101159.53;5089671;28;20093;-67
2023/08/28 10:33:54;;;;;;;9.80;5.68;;;;;;;17.77;100.00;101157.09;5088324;28;20391;-67
2023/08/28 10:36:20;;;;;;;8.27;5.80;;;;;;;17.77;100.00;101159.81;5089721;28;20063;-67
2023/08/28 10:38:47;;;;;;;9.05;5.55;;;;;;;17.77;100.00;101156.28;5089714;28;20031;-67
2023/08/28 10:41:14;;;;;;;7.03;5.05;;;;;;;17.74;100.00;101154.88;5089706;28;20115;-67
2023/08/28 10:43:40;;;;;;;6.95;5.07;;;;;;;17.78;100.00;101155.22;5089737;28;20134;-67
2023/08/28 10:46:06;;;;;;;9.98;5.13;;;;;;;17.79;100.00;101155.03;5089364;28;20054;-67
2023/08/28 10:48:32;;;;;;;8.45;4.68;;;;;;;17.78;100.00;101150.63;5089475;28;20032;-67
2023/08/28 10:50:58;;;;;;;7.32;5.20;;;;;;;17.79;100.00;101148.75;5088868;28;20404;-67
2023/08/28 10:53:24;;;;;;;7.40;4.65;;;;;;;17.81;100.00;101147.50;5087772;28;20039;-67
2023/08/28 10:55:59;;;;;;;8.95;5.50;;;;;;;17.84;100.00;101149.75;5086212;28;20468;-67
2023/08/28 10:58:28;;;;;;;8.32;5.30;;;;;;;17.86;100.00;101142.19;5087569;28;20056;-67
2023/08/28 11:01:16;;;;;;;7.40;4.85;;;;;;;17.91;100.00;101144.19;5088787;28;20040;-67
2023/08/28 11:04:01;;;;;;;6.53;4.55;;;;;;;17.93;100.00;101136.69;5084288;28;20032;-68
2023/08/28 11:06:45;;;;;;;6.82;3.80;;;;;;;17.96;100.00;101139.72;5069215;28;20024;-69
2023/08/28 11:09:25;;;;;;;6.70;3.83;;;;;;;17.95;100.00;101140.78;5068354;28;20101;-70
2023/08/28 11:11:51;;;;;;;4.80;3.45;;;;;;;17.93;100.00;101133.97;5070486;28;20067;-70